Logo AVAMET
Benvolgut visitant, si us plau, ingressa Recuperar contrasenya

Dénia Joan Chabàs

Dades diàries. Acumulats / Últims 30 dies disponibles

Data Temperatura (°C) Humitat rel. (%) Pressió rel. (hPa) Vent (km/h) Precipitació
Mínima Mitjana Màxima Amplitud
tèrmica
Mínima Mitjana Màxima Mínima Mitjana Màxima Predom. Mitjana Ràfega
màxima
Total
(mm)
Índex-n
Mínima Mitjana Màxima Mínima Mitjana Màxima n
0 a 1
P0 max
mm 5'
Dades mensuals acumulades fins l'últim dia disponible
09/2019 14,7 20,8 24,2 24,5 24,1 27,7 34,3 19,6 28 74 95 1.006 1.017 1.025   7,9 103,6 237,0
Dades anuals acumulades fins l'últim dia disponible
2019 3,6 15,8 27,6 19,8 13,8 24,2 40,2 36,6 16 65 97 993 1.016 1.035   6,2 103,6 610,5
Últims 30 dies disponibles
17-09-2019 21,1     24,0     28,1 7,0 68 79 89 1.012 1.015 1.017 E 2,5 24,1 0,0
16-09-2019 22,4     24,1     25,5 3,1 80 87 94 1.016 1.017 1.018 N 7,3 27,8 0,0
15-09-2019 23,4     24,1     24,9 1,5 90 93 95 1.017 1.018 1.021 NNE 12,2 40,7 0,0
14-09-2019 20,3     23,2     24,1 3,8 77 85 92 1.019 1.021 1.024 N 10,3 38,9 7,5 0,28 3,50
13-09-2019 20,1     23,2     24,7 4,6 70 82 93 1.019 1.022 1.024 ENE 11,4 50,0 21,3 0,45 6,70
12-09-2019 14,7     23,1     24,7 10,0 72 82 94 1.017 1.022 1.025 NE 18,1 103,6 140,1 0,85 16,70
11-09-2019 14,7     20,5     -14,7 56 71 94 1.010 1.015 1.020 SSE 12,9 103,6 50,9 0,46 2,20
10-09-2019 17,7     24,5     29,8 12,1 28 48 78 1.006 1.009 1.012 SSE 10,1 53,7 8,3 0,58 1,50
09-09-2019 19,7     25,9     29,1 9,4 39 61 80 1.010 1.013 1.016 S 8,9 53,7 0,0
08-09-2019 19,7     23,7     26,9 7,2 52 70 86 1.014 1.016 1.018 S 4,9 38,9 0,0
07-09-2019 21,6     23,6     26,3 4,7 64 76 90 1.017 1.018 1.019 SSE 4,9 37,0 5,5 0,44 1,30
06-09-2019 22,4     24,2     26,8 4,4 62 74 84 1.017 1.018 1.018 ESE 6,7 37,0 0,0
05-09-2019 24,2     25,5     30,5 6,3 61 73 83 1.014 1.016 1.018 SE 4,4 31,5 0,0
04-09-2019 22,4     27,0     30,5 8,1 55 71 82 1.014 1.017 1.019 S 3,6 35,4 0,0
03-09-2019 22,4     25,5     29,7 7,3 60 76 87 1.017 1.019 1.020 S 5,3 64,8 0,0
02-09-2019 23,1     25,2     -23,1 66 80 90 1.013 1.016 1.019 SSO 5,5 64,8 3,4 0,13 0,30
01-09-2019 23,1     28,9     34,3 11,2 34 58 82 1.010 1.012 1.013 S 5,4 42,6 0,0
31-08-2019 22,4     28,6     33,3 10,9 37 57 79 1.012 1.014 1.017 S 2,4 29,6 0,0
30-08-2019 22,0     27,6     32,3 10,3 39 59 78 1.016 1.018 1.019 S 3,4 40,7 0,0
29-08-2019 20,7     26,9     32,0 11,3 40 66 85 1.017 1.017 1.019 S 5,3 40,7 0,0
28-08-2019 20,6     24,8     29,1 8,5 60 73 84 1.015 1.016 1.017 SSE 3,7 43,4 0,3
27-08-2019 20,6     24,1     27,7 7,1 69 76 84 1.012 1.014 1.016 OSO 7,2 43,4 0,3
26-08-2019 22,3     25,7     27,7 5,4 70 79 86 1.012 1.015 1.016 SE 4,9 29,6 0,0
25-08-2019 22,3     25,2     27,7 5,4 69 79 87 1.015 1.016 1.017 S 5,6 24,1 0,0
24-08-2019 21,8     25,1     27,3 5,5 65 76 85 1.016 1.017 1.019 S 4,6 22,5 0,0
23-08-2019 21,8     24,8     27,3 5,5 55 75 86 1.017 1.018 1.020 SSE 4,2 22,5 0,0
22-08-2019 21,8     24,8     27,3 5,5 67 75 82 1.017 1.019 1.020 S 4,5 38,9 0,0
21-08-2019 23,3     25,4     28,7 5,4 56 74 94 1.017 1.018 1.019 E 9,0 50,0 20,3 0,62 9,20
20-08-2019 25,0     26,4     28,8 3,8 73 82 88 1.013 1.015 1.018 SE 10,0 50,0 18,2
19-08-2019 23,5     27,5     -23,5 23 81 87 1.010 1.012 1.014 S 6,4 59,5 0,0
Últims 13 mesos disponibles
09/2019 14,7 21,0 24,2 25,0 26,3 29,3 34,3 19,6 48 69 80 1.009 1.015 1.019 S 6,6 103,6 68,1
08/2019 20,6 23,7 27,6 27,5 27,2 31,7 40,2 19,6 51 68 82 1.009 1.014 1.019 S 6,3 59,5 22,2
07/2019 22,8 24,1 25,5 27,4 27,2 31,2 39,5 16,7 45 67 83 1.004 1.012 1.020 SSE 6,7 83,7 2,1
06/2019 15,5 18,9 24,1 23,3 21,2 28,1 37,1 21,6 36 65 86 1.007 1.014 1.021 SSE 6,8 69,2 0,0
05/2019 12,4 15,5 20,9 19,5 18,2 24,4 30,7 18,3 49 66 83 1.004 1.014 1.023 SSE 6,0 72,4 9,0
04/2019 10,7 12,7 14,6 16,3 16,2 20,0 27,4 16,7 40 67 92 998 1.012 1.024 SSE 7,7 68,5 281,9
03/2019 8,8 10,8 13,8 15,5 14,7 20,1 27,7 18,9 36 60 88 1.009 1.022 1.029 SSE 4,7 59,5 36,7
02/2019 6,5 8,8 12,6 13,3 13,8 18,3 24,1 17,6 37 64 84 995 1.024 1.033 S 5,2 72,4 0,0
01/2019 3,6 8,2 11,7 12,7 13,9 17,2 21,8 18,2 41 59 83 1.002 1.018 1.030 S 5,3 77,7 3,7
12/2018 7,6 10,3 13,4 14,5 14,3 19,5 22,6 15,0 52 69 87 1.008 1.024 1.030 S 2,6 66,6 29,8
11/2018 9,6 12,9 16,7 16,3 17,0 19,9 23,8 14,2 46 67 92 999 1.014 1.022 SO 5,3 79,6 114,1
10/2018 9,9 16,7 21,2 20,0 14,7 23,3 28,6 18,7 39 69 89 999 1.013 1.025 SO 0,2 61,0 109,3
09/2018 17,2 22,2 24,4 25,2 24,4 28,2 33,8 16,6 59 74 86 1.011 1.018 1.027 56,0 100,4
Tots els anys disponibles
2018 5,3 16,3 27,5 19,7 8,6 23,2 37,8 32,5 34 65 92 993 1.015 1.034 SSO 0,7 89,0 625,8
2017 0,6 16,0 27,5 19,5 10,0 22,9 37,2 36,6 31 66 91 999 1.018 1.036 93,0 587,2
2016 3,9 16,3 26,7 19,5 11,8 22,7 37,8 33,9 59 66 80 1.013 1.017 1.026 89,0 457,1
2015 4,1 16,1 23,5 19,5 21,4 22,9 40,4 36,3 59 67 80 1.014 1.018 1.030 76,0 628,2
2014 5,9 16,6 27,0 19,9 11,8 23,2 38,2 32,3 37 64 90 992 1.015 1.033 6,8 85,0 235,4
2013 3,4 15,6 19,2 18,9 19,5 22,2 34,4 31,0 55 63 72 1.007 1.015 1.024 5,7 98,0 642,8
2012 1,6 15,6 22,1 19,0 19,2 22,7 39,4 37,8 7,9 75,9 532,2
2011 1,4 16,1 25,7 19,3 6,7 22,6 37,2 35,8 7,4 98,0 478,4
2010 3,1 15,2 26,2 18,4 6,1 21,7 41,9 38,8 7,8 101,8 604,1
2009 2,9 17,9 26,5 21,3 9,1 24,9 38,6 35,7 7,6 99,9 848,8
Temperatura (°C)
Humitat relativa (%)
Velocitat del vent i ràfega màxima (km/h)
Direcció del vent (°)
Pressió (hPa)
Precipitació (mm)
Nota sobre les dades: s'avisa a l'usuari de la provisionalitat i no oficialitat d'aquestes dades
Logo AVAMET blanc
Web allotjada a Sollutia
Llicència de Creative CommonsLa web d'AVAMET i els seus continguts estan subjectes a una llicència de
Reconeixement - No Comercial - Compartir igual
Properes estacions: Altea - Club Nàutic d'Altea (Soci),    - - - - -      Últimes estacions: Llíria - Bodegas del Campo (Soci), La Pobla Tornesa (Soci), Quartell (Soci), Alzira - Est (Soci/Inforatge), San Miguel de las Salinas (MeteOrihuela), Segorbe (Inforatge), Alcalà de Xivert - Alcossebre (Inforatge), Moixent - la Foia (Soci), Callosa d'en Sarrià - Centre (Soci) - - -